sensor_id;sensor_type;location;lat;lon;timestamp;P1;durP1;ratioP1;P2;durP2;ratioP2
75526;SDS011;64107;49.248;7.006;2022-10-13T00:00:29;60.90;;;21.70;;
75526;SDS011;64107;49.248;7.006;2022-10-13T00:02:57;55.60;;;20.08;;
75526;SDS011;64107;49.248;7.006;2022-10-13T00:05:25;50.38;;;19.67;;
75526;SDS011;64107;49.248;7.006;2022-10-13T00:07:52;47.50;;;19.08;;
75526;SDS011;64107;49.248;7.006;2022-10-13T00:12:44;39.92;;;18.77;;
75526;SDS011;64107;49.248;7.006;2022-10-13T00:15:10;40.97;;;17.40;;
75526;SDS011;64107;49.248;7.006;2022-10-13T00:17:37;33.85;;;16.20;;
75526;SDS011;64107;49.248;7.006;2022-10-13T00:20:04;35.72;;;16.67;;
75526;SDS011;64107;49.248;7.006;2022-10-13T00:22:30;32.03;;;16.95;;
75526;SDS011;64107;49.248;7.006;2022-10-13T00:24:57;37.95;;;15.65;;
75526;SDS011;64107;49.248;7.006;2022-10-13T00:27:23;35.53;;;16.05;;
75526;SDS011;64107;49.248;7.006;2022-10-13T00:32:15;30.35;;;14.77;;
75526;SDS011;64107;49.248;7.006;2022-10-13T00:34:41;31.70;;;14.57;;
75526;SDS011;64107;49.248;7.006;2022-10-13T00:37:07;31.48;;;15.45;;
75526;SDS011;64107;49.248;7.006;2022-10-13T00:39:33;34.75;;;16.00;;
75526;SDS011;64107;49.248;7.006;2022-10-13T00:42:00;37.13;;;16.38;;
75526;SDS011;64107;49.248;7.006;2022-10-13T00:47:17;29.13;;;14.57;;
75526;SDS011;64107;49.248;7.006;2022-10-13T00:49:44;29.90;;;16.00;;
75526;SDS011;64107;49.248;7.006;2022-10-13T00:52:10;32.42;;;16.73;;
75526;SDS011;64107;49.248;7.006;2022-10-13T00:54:37;34.15;;;16.02;;
75526;SDS011;64107;49.248;7.006;2022-10-13T00:59:29;34.72;;;15.40;;
75526;SDS011;64107;49.248;7.006;2022-10-13T01:01:56;41.72;;;16.65;;
75526;SDS011;64107;49.248;7.006;2022-10-13T01:04:24;41.30;;;15.90;;
75526;SDS011;64107;49.248;7.006;2022-10-13T01:06:52;34.60;;;15.05;;
75526;SDS011;64107;49.248;7.006;2022-10-13T01:09:19;33.70;;;14.93;;
75526;SDS011;64107;49.248;7.006;2022-10-13T01:17:23;31.88;;;15.05;;
75526;SDS011;64107;49.248;7.006;2022-10-13T01:22:54;35.88;;;15.52;;
75526;SDS011;64107;49.248;7.006;2022-10-13T01:26:01;45.45;;;17.75;;
75526;SDS011;64107;49.248;7.006;2022-10-13T01:31:46;34.08;;;16.17;;
75526;SDS011;64107;49.248;7.006;2022-10-13T01:34:32;34.72;;;14.43;;
75526;SDS011;64107;49.248;7.006;2022-10-13T01:39:56;30.77;;;16.10;;
75526;SDS011;64107;49.248;7.006;2022-10-13T01:42:34;32.38;;;15.02;;
75526;SDS011;64107;49.248;7.006;2022-10-13T01:45:06;33.75;;;15.52;;
75526;SDS011;64107;49.248;7.006;2022-10-13T01:47:32;32.28;;;14.93;;
75526;SDS011;64107;49.248;7.006;2022-10-13T01:50:00;31.58;;;14.52;;
75526;SDS011;64107;49.248;7.006;2022-10-13T01:52:30;31.13;;;14.48;;
75526;SDS011;64107;49.248;7.006;2022-10-13T01:55:03;29.42;;;14.35;;
75526;SDS011;64107;49.248;7.006;2022-10-13T01:57:32;21.08;;;12.40;;
75526;SDS011;64107;49.248;7.006;2022-10-13T02:00:00;33.63;;;16.02;;
75526;SDS011;64107;49.248;7.006;2022-10-13T02:02:31;33.03;;;16.17;;
75526;SDS011;64107;49.248;7.006;2022-10-13T02:07:46;28.20;;;13.15;;
75526;SDS011;64107;49.248;7.006;2022-10-13T02:10:19;32.15;;;15.52;;
75526;SDS011;64107;49.248;7.006;2022-10-13T02:12:49;31.02;;;16.40;;
75526;SDS011;64107;49.248;7.006;2022-10-13T02:15:30;30.73;;;15.07;;
75526;SDS011;64107;49.248;7.006;2022-10-13T02:18:04;29.38;;;14.93;;
75526;SDS011;64107;49.248;7.006;2022-10-13T02:20:32;29.23;;;14.77;;
75526;SDS011;64107;49.248;7.006;2022-10-13T02:23:06;28.88;;;15.05;;
75526;SDS011;64107;49.248;7.006;2022-10-13T02:25:34;33.58;;;13.90;;
75526;SDS011;64107;49.248;7.006;2022-10-13T02:28:00;30.60;;;14.32;;
75526;SDS011;64107;49.248;7.006;2022-10-13T02:30:28;31.83;;;14.23;;
75526;SDS011;64107;49.248;7.006;2022-10-13T02:32:55;28.95;;;13.05;;
75526;SDS011;64107;49.248;7.006;2022-10-13T02:35:21;36.35;;;14.15;;
75526;SDS011;64107;49.248;7.006;2022-10-13T02:37:47;24.95;;;12.68;;
75526;SDS011;64107;49.248;7.006;2022-10-13T02:42:39;27.08;;;13.02;;
75526;SDS011;64107;49.248;7.006;2022-10-13T02:47:31;28.10;;;12.43;;
75526;SDS011;64107;49.248;7.006;2022-10-13T02:52:24;24.40;;;9.63;;
75526;SDS011;64107;49.248;7.006;2022-10-13T02:54:50;30.02;;;13.90;;
75526;SDS011;64107;49.248;7.006;2022-10-13T02:57:16;31.10;;;12.80;;
75526;SDS011;64107;49.248;7.006;2022-10-13T02:59:42;28.50;;;13.90;;
75526;SDS011;64107;49.248;7.006;2022-10-13T03:02:08;29.23;;;13.07;;
75526;SDS011;64107;49.248;7.006;2022-10-13T03:07:00;28.58;;;13.57;;
75526;SDS011;64107;49.248;7.006;2022-10-13T03:09:26;28.67;;;12.82;;
75526;SDS011;64107;49.248;7.006;2022-10-13T03:11:53;32.78;;;14.57;;
75526;SDS011;64107;49.248;7.006;2022-10-13T03:16:45;28.25;;;13.88;;
75526;SDS011;64107;49.248;7.006;2022-10-13T03:19:11;35.30;;;14.27;;
75526;SDS011;64107;49.248;7.006;2022-10-13T03:24:03;28.17;;;13.88;;
75526;SDS011;64107;49.248;7.006;2022-10-13T03:26:29;33.75;;;14.57;;
75526;SDS011;64107;49.248;7.006;2022-10-13T03:28:56;26.40;;;14.18;;
75526;SDS011;64107;49.248;7.006;2022-10-13T03:31:22;31.33;;;13.82;;
75526;SDS011;64107;49.248;7.006;2022-10-13T03:36:15;27.77;;;13.27;;
75526;SDS011;64107;49.248;7.006;2022-10-13T03:38:41;24.98;;;12.20;;
75526;SDS011;64107;49.248;7.006;2022-10-13T03:41:17;28.08;;;12.35;;
75526;SDS011;64107;49.248;7.006;2022-10-13T03:43:43;27.65;;;13.38;;
75526;SDS011;64107;49.248;7.006;2022-10-13T03:46:10;23.55;;;12.00;;
75526;SDS011;64107;49.248;7.006;2022-10-13T03:48:38;24.40;;;13.05;;
75526;SDS011;64107;49.248;7.006;2022-10-13T03:51:05;24.90;;;12.40;;
75526;SDS011;64107;49.248;7.006;2022-10-13T03:53:32;27.65;;;13.15;;
75526;SDS011;64107;49.248;7.006;2022-10-13T03:55:58;26.15;;;11.57;;
75526;SDS011;64107;49.248;7.006;2022-10-13T03:58:24;31.30;;;13.70;;
75526;SDS011;64107;49.248;7.006;2022-10-13T04:00:53;24.05;;;12.73;;
75526;SDS011;64107;49.248;7.006;2022-10-13T04:03:19;24.33;;;12.85;;
75526;SDS011;64107;49.248;7.006;2022-10-13T04:05:45;21.38;;;12.13;;
75526;SDS011;64107;49.248;7.006;2022-10-13T04:08:12;29.48;;;14.27;;
75526;SDS011;64107;49.248;7.006;2022-10-13T04:10:38;22.67;;;11.85;;
75526;SDS011;64107;49.248;7.006;2022-10-13T04:13:05;27.83;;;12.80;;
75526;SDS011;64107;49.248;7.006;2022-10-13T04:15:35;24.17;;;13.57;;
75526;SDS011;64107;49.248;7.006;2022-10-13T04:18:01;25.17;;;11.60;;
75526;SDS011;64107;49.248;7.006;2022-10-13T04:20:28;24.88;;;13.55;;
75526;SDS011;64107;49.248;7.006;2022-10-13T04:25:20;22.00;;;12.55;;
75526;SDS011;64107;49.248;7.006;2022-10-13T04:27:46;25.88;;;12.77;;
75526;SDS011;64107;49.248;7.006;2022-10-13T04:32:38;55.53;;;14.73;;
75526;SDS011;64107;49.248;7.006;2022-10-13T04:35:05;25.45;;;12.50;;
75526;SDS011;64107;49.248;7.006;2022-10-13T04:37:31;24.77;;;12.18;;
75526;SDS011;64107;49.248;7.006;2022-10-13T04:42:23;30.05;;;12.43;;
75526;SDS011;64107;49.248;7.006;2022-10-13T04:44:49;24.40;;;12.10;;
75526;SDS011;64107;49.248;7.006;2022-10-13T04:49:41;23.15;;;9.90;;
75526;SDS011;64107;49.248;7.006;2022-10-13T04:52:07;19.65;;;10.80;;
75526;SDS011;64107;49.248;7.006;2022-10-13T04:56:59;22.58;;;10.10;;
75526;SDS011;64107;49.248;7.006;2022-10-13T04:59:25;18.38;;;10.40;;
75526;SDS011;64107;49.248;7.006;2022-10-13T05:01:51;16.88;;;10.00;;
75526;SDS011;64107;49.248;7.006;2022-10-13T05:04:17;20.05;;;11.35;;
75526;SDS011;64107;49.248;7.006;2022-10-13T05:06:43;20.67;;;10.43;;
75526;SDS011;64107;49.248;7.006;2022-10-13T05:09:13;19.92;;;11.57;;
75526;SDS011;64107;49.248;7.006;2022-10-13T05:11:42;24.23;;;11.43;;
75526;SDS011;64107;49.248;7.006;2022-10-13T05:14:08;17.70;;;10.35;;
75526;SDS011;64107;49.248;7.006;2022-10-13T05:16:34;18.75;;;9.50;;
75526;SDS011;64107;49.248;7.006;2022-10-13T05:19:01;16.80;;;9.80;;
75526;SDS011;64107;49.248;7.006;2022-10-13T05:21:27;19.38;;;10.85;;
75526;SDS011;64107;49.248;7.006;2022-10-13T05:23:54;17.65;;;9.63;;
75526;SDS011;64107;49.248;7.006;2022-10-13T05:26:25;21.17;;;10.50;;
75526;SDS011;64107;49.248;7.006;2022-10-13T05:28:53;18.08;;;9.98;;
75526;SDS011;64107;49.248;7.006;2022-10-13T05:31:22;20.38;;;9.25;;
75526;SDS011;64107;49.248;7.006;2022-10-13T05:33:49;18.70;;;9.25;;
75526;SDS011;64107;49.248;7.006;2022-10-13T05:36:17;23.15;;;12.95;;
75526;SDS011;64107;49.248;7.006;2022-10-13T05:38:48;19.98;;;10.23;;
75526;SDS011;64107;49.248;7.006;2022-10-13T05:41:16;19.77;;;9.27;;
75526;SDS011;64107;49.248;7.006;2022-10-13T05:43:42;16.52;;;9.25;;
75526;SDS011;64107;49.248;7.006;2022-10-13T05:46:08;21.23;;;10.30;;
75526;SDS011;64107;49.248;7.006;2022-10-13T05:48:35;16.75;;;9.50;;
75526;SDS011;64107;49.248;7.006;2022-10-13T05:51:02;14.18;;;7.78;;
75526;SDS011;64107;49.248;7.006;2022-10-13T05:53:40;14.23;;;7.90;;
75526;SDS011;64107;49.248;7.006;2022-10-13T05:56:11;14.82;;;8.13;;
75526;SDS011;64107;49.248;7.006;2022-10-13T05:58:41;18.08;;;9.77;;
75526;SDS011;64107;49.248;7.006;2022-10-13T06:01:09;17.65;;;10.95;;
75526;SDS011;64107;49.248;7.006;2022-10-13T06:03:37;21.02;;;9.95;;
75526;SDS011;64107;49.248;7.006;2022-10-13T06:06:04;21.30;;;11.13;;
75526;SDS011;64107;49.248;7.006;2022-10-13T06:08:30;18.33;;;10.40;;
75526;SDS011;64107;49.248;7.006;2022-10-13T06:10:56;19.85;;;10.05;;
75526;SDS011;64107;49.248;7.006;2022-10-13T06:13:22;20.40;;;10.77;;
75526;SDS011;64107;49.248;7.006;2022-10-13T06:15:49;23.27;;;11.93;;
75526;SDS011;64107;49.248;7.006;2022-10-13T06:18:15;19.35;;;9.10;;
75526;SDS011;64107;49.248;7.006;2022-10-13T06:20:41;20.88;;;10.45;;
75526;SDS011;64107;49.248;7.006;2022-10-13T06:23:08;17.52;;;9.38;;
75526;SDS011;64107;49.248;7.006;2022-10-13T06:25:34;19.55;;;10.70;;
75526;SDS011;64107;49.248;7.006;2022-10-13T06:28:00;22.02;;;11.77;;
75526;SDS011;64107;49.248;7.006;2022-10-13T06:30:26;20.60;;;10.77;;
75526;SDS011;64107;49.248;7.006;2022-10-13T06:32:53;22.60;;;10.60;;
75526;SDS011;64107;49.248;7.006;2022-10-13T06:35:20;17.10;;;9.15;;
75526;SDS011;64107;49.248;7.006;2022-10-13T06:37:47;17.60;;;8.48;;
75526;SDS011;64107;49.248;7.006;2022-10-13T06:40:14;16.67;;;10.43;;
75526;SDS011;64107;49.248;7.006;2022-10-13T06:42:40;19.50;;;9.15;;
75526;SDS011;64107;49.248;7.006;2022-10-13T06:45:06;16.30;;;9.50;;
75526;SDS011;64107;49.248;7.006;2022-10-13T06:47:33;16.92;;;8.73;;
75526;SDS011;64107;49.248;7.006;2022-10-13T06:49:59;16.58;;;9.10;;
75526;SDS011;64107;49.248;7.006;2022-10-13T06:52:25;14.50;;;9.30;;
75526;SDS011;64107;49.248;7.006;2022-10-13T06:54:51;16.25;;;10.23;;
75526;SDS011;64107;49.248;7.006;2022-10-13T06:57:17;20.05;;;9.88;;
75526;SDS011;64107;49.248;7.006;2022-10-13T06:59:43;19.15;;;10.30;;
75526;SDS011;64107;49.248;7.006;2022-10-13T07:02:09;17.13;;;11.18;;
75526;SDS011;64107;49.248;7.006;2022-10-13T07:04:35;16.67;;;9.95;;
75526;SDS011;64107;49.248;7.006;2022-10-13T07:07:02;15.63;;;9.50;;
75526;SDS011;64107;49.248;7.006;2022-10-13T07:09:28;14.25;;;8.43;;
75526;SDS011;64107;49.248;7.006;2022-10-13T07:11:55;11.45;;;7.20;;
75526;SDS011;64107;49.248;7.006;2022-10-13T07:14:21;14.05;;;9.90;;
75526;SDS011;64107;49.248;7.006;2022-10-13T07:16:47;14.20;;;9.25;;
75526;SDS011;64107;49.248;7.006;2022-10-13T07:19:13;13.45;;;9.18;;
75526;SDS011;64107;49.248;7.006;2022-10-13T07:21:39;15.75;;;9.15;;
75526;SDS011;64107;49.248;7.006;2022-10-13T07:24:05;12.68;;;8.18;;
75526;SDS011;64107;49.248;7.006;2022-10-13T07:26:31;14.70;;;9.25;;
75526;SDS011;64107;49.248;7.006;2022-10-13T07:28:58;14.93;;;9.43;;
75526;SDS011;64107;49.248;7.006;2022-10-13T07:31:24;15.07;;;8.75;;
75526;SDS011;64107;49.248;7.006;2022-10-13T07:33:51;17.65;;;8.73;;
75526;SDS011;64107;49.248;7.006;2022-10-13T07:36:17;18.70;;;10.32;;
75526;SDS011;64107;49.248;7.006;2022-10-13T07:38:43;19.23;;;9.75;;
75526;SDS011;64107;49.248;7.006;2022-10-13T07:41:10;18.27;;;10.48;;
75526;SDS011;64107;49.248;7.006;2022-10-13T07:43:37;14.00;;;9.45;;
75526;SDS011;64107;49.248;7.006;2022-10-13T07:46:03;14.30;;;10.10;;
75526;SDS011;64107;49.248;7.006;2022-10-13T07:48:30;17.65;;;9.93;;
75526;SDS011;64107;49.248;7.006;2022-10-13T07:50:56;16.30;;;10.55;;
75526;SDS011;64107;49.248;7.006;2022-10-13T07:53:22;17.13;;;10.00;;
75526;SDS011;64107;49.248;7.006;2022-10-13T07:55:48;15.23;;;9.60;;
75526;SDS011;64107;49.248;7.006;2022-10-13T07:58:15;16.98;;;9.70;;
75526;SDS011;64107;49.248;7.006;2022-10-13T08:00:41;16.75;;;8.80;;
75526;SDS011;64107;49.248;7.006;2022-10-13T08:03:07;16.35;;;8.75;;
75526;SDS011;64107;49.248;7.006;2022-10-13T08:05:35;16.67;;;8.88;;
75526;SDS011;64107;49.248;7.006;2022-10-13T08:08:02;18.90;;;9.50;;
75526;SDS011;64107;49.248;7.006;2022-10-13T08:10:28;14.07;;;9.57;;
75526;SDS011;64107;49.248;7.006;2022-10-13T08:12:54;16.13;;;9.20;;
75526;SDS011;64107;49.248;7.006;2022-10-13T08:15:20;16.98;;;8.55;;
75526;SDS011;64107;49.248;7.006;2022-10-13T08:17:46;15.18;;;8.65;;
75526;SDS011;64107;49.248;7.006;2022-10-13T08:20:12;14.45;;;8.98;;
75526;SDS011;64107;49.248;7.006;2022-10-13T08:22:38;16.90;;;8.90;;
75526;SDS011;64107;49.248;7.006;2022-10-13T08:25:05;14.77;;;8.73;;
75526;SDS011;64107;49.248;7.006;2022-10-13T08:27:31;14.70;;;8.40;;
75526;SDS011;64107;49.248;7.006;2022-10-13T08:29:57;11.82;;;8.00;;
75526;SDS011;64107;49.248;7.006;2022-10-13T08:32:23;13.55;;;8.45;;
75526;SDS011;64107;49.248;7.006;2022-10-13T08:34:49;16.30;;;9.45;;
75526;SDS011;64107;49.248;7.006;2022-10-13T08:37:16;16.85;;;9.23;;
75526;SDS011;64107;49.248;7.006;2022-10-13T08:39:43;16.30;;;9.35;;
75526;SDS011;64107;49.248;7.006;2022-10-13T08:42:12;16.05;;;8.27;;
75526;SDS011;64107;49.248;7.006;2022-10-13T08:44:50;15.02;;;8.65;;
75526;SDS011;64107;49.248;7.006;2022-10-13T08:49:47;12.98;;;7.95;;
75526;SDS011;64107;49.248;7.006;2022-10-13T08:52:18;20.05;;;9.65;;
75526;SDS011;64107;49.248;7.006;2022-10-13T08:54:49;15.13;;;8.38;;
75526;SDS011;64107;49.248;7.006;2022-10-13T08:57:16;14.35;;;8.55;;
75526;SDS011;64107;49.248;7.006;2022-10-13T08:59:42;13.20;;;8.00;;
75526;SDS011;64107;49.248;7.006;2022-10-13T09:02:12;16.27;;;9.88;;
75526;SDS011;64107;49.248;7.006;2022-10-13T09:04:45;16.15;;;8.90;;
75526;SDS011;64107;49.248;7.006;2022-10-13T09:07:16;17.25;;;9.55;;
75526;SDS011;64107;49.248;7.006;2022-10-13T09:09:48;17.00;;;8.30;;
75526;SDS011;64107;49.248;7.006;2022-10-13T09:12:15;16.38;;;10.10;;
75526;SDS011;64107;49.248;7.006;2022-10-13T09:14:54;15.30;;;8.35;;
75526;SDS011;64107;49.248;7.006;2022-10-13T09:17:41;11.48;;;7.72;;
75526;SDS011;64107;49.248;7.006;2022-10-13T09:20:21;11.98;;;7.72;;
75526;SDS011;64107;49.248;7.006;2022-10-13T09:23:02;17.98;;;9.75;;
75526;SDS011;64107;49.248;7.006;2022-10-13T09:25:29;16.88;;;8.80;;
75526;SDS011;64107;49.248;7.006;2022-10-13T09:28:13;14.85;;;8.82;;
75526;SDS011;64107;49.248;7.006;2022-10-13T09:30:43;13.43;;;9.68;;
75526;SDS011;64107;49.248;7.006;2022-10-13T09:33:15;13.73;;;7.93;;
75526;SDS011;64107;49.248;7.006;2022-10-13T09:38:25;15.65;;;8.95;;
75526;SDS011;64107;49.248;7.006;2022-10-13T09:43:36;13.60;;;9.30;;
75526;SDS011;64107;49.248;7.006;2022-10-13T09:46:28;15.93;;;9.70;;
75526;SDS011;64107;49.248;7.006;2022-10-13T09:48:56;14.80;;;9.65;;
75526;SDS011;64107;49.248;7.006;2022-10-13T09:54:01;13.73;;;8.13;;
75526;SDS011;64107;49.248;7.006;2022-10-13T09:56:41;13.15;;;8.50;;
75526;SDS011;64107;49.248;7.006;2022-10-13T09:59:26;13.15;;;8.52;;
75526;SDS011;64107;49.248;7.006;2022-10-13T10:02:14;15.57;;;9.50;;
75526;SDS011;64107;49.248;7.006;2022-10-13T10:04:45;14.32;;;9.02;;
75526;SDS011;64107;49.248;7.006;2022-10-13T10:07:12;14.80;;;8.15;;
75526;SDS011;64107;49.248;7.006;2022-10-13T10:09:47;14.13;;;8.15;;
75526;SDS011;64107;49.248;7.006;2022-10-13T10:12:15;14.00;;;8.10;;
75526;SDS011;64107;49.248;7.006;2022-10-13T10:14:44;16.45;;;8.13;;
75526;SDS011;64107;49.248;7.006;2022-10-13T10:20:02;13.00;;;8.32;;
75526;SDS011;64107;49.248;7.006;2022-10-13T10:29:13;13.57;;;9.25;;
75526;SDS011;64107;49.248;7.006;2022-10-13T10:42:05;16.08;;;9.70;;
75526;SDS011;64107;49.248;7.006;2022-10-13T10:44:53;15.88;;;9.00;;
75526;SDS011;64107;49.248;7.006;2022-10-13T10:47:22;14.63;;;9.15;;
75526;SDS011;64107;49.248;7.006;2022-10-13T10:49:56;10.02;;;7.88;;
75526;SDS011;64107;49.248;7.006;2022-10-13T10:52:28;12.23;;;8.65;;
75526;SDS011;64107;49.248;7.006;2022-10-13T10:55:22;16.08;;;8.68;;
75526;SDS011;64107;49.248;7.006;2022-10-13T10:58:18;11.80;;;8.32;;
75526;SDS011;64107;49.248;7.006;2022-10-13T11:00:57;14.52;;;8.13;;
75526;SDS011;64107;49.248;7.006;2022-10-13T11:03:50;13.55;;;8.32;;
75526;SDS011;64107;49.248;7.006;2022-10-13T11:06:23;12.38;;;8.05;;
75526;SDS011;64107;49.248;7.006;2022-10-13T11:09:00;16.83;;;9.82;;
75526;SDS011;64107;49.248;7.006;2022-10-13T11:13:57;15.30;;;9.05;;
75526;SDS011;64107;49.248;7.006;2022-10-13T11:19:33;15.02;;;8.63;;
75526;SDS011;64107;49.248;7.006;2022-10-13T11:37:27;16.55;;;9.00;;
75526;SDS011;64107;49.248;7.006;2022-10-13T11:40:17;12.73;;;9.55;;
75526;SDS011;64107;49.248;7.006;2022-10-13T11:43:16;14.98;;;9.88;;
75526;SDS011;64107;49.248;7.006;2022-10-13T11:48:55;15.30;;;9.68;;
75526;SDS011;64107;49.248;7.006;2022-10-13T11:56:52;20.70;;;9.38;;
75526;SDS011;64107;49.248;7.006;2022-10-13T12:01:53;14.77;;;8.95;;
75526;SDS011;64107;49.248;7.006;2022-10-13T12:04:35;14.32;;;9.40;;
75526;SDS011;64107;49.248;7.006;2022-10-13T12:07:03;16.80;;;8.95;;
75526;SDS011;64107;49.248;7.006;2022-10-13T12:09:31;14.80;;;8.35;;
75526;SDS011;64107;49.248;7.006;2022-10-13T12:12:13;11.90;;;8.90;;
75526;SDS011;64107;49.248;7.006;2022-10-13T12:14:41;13.45;;;9.40;;
75526;SDS011;64107;49.248;7.006;2022-10-13T12:19:57;13.77;;;9.60;;
75526;SDS011;64107;49.248;7.006;2022-10-13T12:22:24;13.82;;;8.77;;
75526;SDS011;64107;49.248;7.006;2022-10-13T12:27:28;14.25;;;9.48;;
75526;SDS011;64107;49.248;7.006;2022-10-13T12:29:59;12.15;;;8.77;;
75526;SDS011;64107;49.248;7.006;2022-10-13T12:32:27;14.85;;;8.35;;
75526;SDS011;64107;49.248;7.006;2022-10-13T12:34:54;11.43;;;7.38;;
75526;SDS011;64107;49.248;7.006;2022-10-13T12:37:28;13.35;;;8.95;;
75526;SDS011;64107;49.248;7.006;2022-10-13T12:39:57;12.68;;;9.68;;
75526;SDS011;64107;49.248;7.006;2022-10-13T12:42:28;11.85;;;8.43;;
75526;SDS011;64107;49.248;7.006;2022-10-13T12:44:55;15.02;;;9.73;;
75526;SDS011;64107;49.248;7.006;2022-10-13T12:47:36;15.98;;;8.98;;
75526;SDS011;64107;49.248;7.006;2022-10-13T12:50:21;15.52;;;10.50;;
75526;SDS011;64107;49.248;7.006;2022-10-13T12:52:48;15.27;;;9.55;;
75526;SDS011;64107;49.248;7.006;2022-10-13T12:55:19;17.05;;;10.73;;
75526;SDS011;64107;49.248;7.006;2022-10-13T12:57:47;15.85;;;10.40;;
75526;SDS011;64107;49.248;7.006;2022-10-13T13:00:24;17.10;;;9.18;;
75526;SDS011;64107;49.248;7.006;2022-10-13T13:02:53;16.50;;;9.95;;
75526;SDS011;64107;49.248;7.006;2022-10-13T13:05:35;10.00;;;7.10;;
75526;SDS011;64107;49.248;7.006;2022-10-13T13:08:26;13.85;;;7.53;;
75526;SDS011;64107;49.248;7.006;2022-10-13T13:10:57;11.55;;;7.40;;
75526;SDS011;64107;49.248;7.006;2022-10-13T13:13:23;15.23;;;8.68;;
75526;SDS011;64107;49.248;7.006;2022-10-13T13:15:50;18.30;;;11.20;;
75526;SDS011;64107;49.248;7.006;2022-10-13T13:20:56;16.85;;;10.95;;
75526;SDS011;64107;49.248;7.006;2022-10-13T13:23:22;19.00;;;11.02;;
75526;SDS011;64107;49.248;7.006;2022-10-13T13:25:58;19.13;;;10.88;;
75526;SDS011;64107;49.248;7.006;2022-10-13T13:28:31;21.05;;;12.23;;
75526;SDS011;64107;49.248;7.006;2022-10-13T13:30:58;14.32;;;8.50;;
75526;SDS011;64107;49.248;7.006;2022-10-13T13:33:24;23.35;;;12.45;;
75526;SDS011;64107;49.248;7.006;2022-10-13T13:35:51;26.27;;;12.38;;
75526;SDS011;64107;49.248;7.006;2022-10-13T13:38:17;22.45;;;12.02;;
75526;SDS011;64107;49.248;7.006;2022-10-13T13:40:43;17.60;;;10.35;;
75526;SDS011;64107;49.248;7.006;2022-10-13T13:43:09;23.38;;;12.88;;
75526;SDS011;64107;49.248;7.006;2022-10-13T13:45:35;18.98;;;8.93;;
75526;SDS011;64107;49.248;7.006;2022-10-13T13:48:02;21.15;;;10.88;;
75526;SDS011;64107;49.248;7.006;2022-10-13T13:50:32;18.45;;;11.02;;
75526;SDS011;64107;49.248;7.006;2022-10-13T13:53:00;13.15;;;7.90;;
75526;SDS011;64107;49.248;7.006;2022-10-13T13:55:26;24.17;;;12.70;;
75526;SDS011;64107;49.248;7.006;2022-10-13T13:57:53;21.20;;;12.65;;
75526;SDS011;64107;49.248;7.006;2022-10-13T14:00:20;21.73;;;11.27;;
75526;SDS011;64107;49.248;7.006;2022-10-13T14:02:46;16.70;;;8.68;;
75526;SDS011;64107;49.248;7.006;2022-10-13T14:05:12;20.60;;;12.07;;
75526;SDS011;64107;49.248;7.006;2022-10-13T14:07:39;21.65;;;12.50;;
75526;SDS011;64107;49.248;7.006;2022-10-13T14:10:06;23.00;;;11.55;;
75526;SDS011;64107;49.248;7.006;2022-10-13T14:12:33;23.77;;;13.15;;
75526;SDS011;64107;49.248;7.006;2022-10-13T14:14:59;22.40;;;13.45;;
75526;SDS011;64107;49.248;7.006;2022-10-13T14:17:25;26.80;;;13.73;;
75526;SDS011;64107;49.248;7.006;2022-10-13T14:19:52;20.35;;;12.38;;
75526;SDS011;64107;49.248;7.006;2022-10-13T14:22:18;19.60;;;10.70;;
75526;SDS011;64107;49.248;7.006;2022-10-13T14:24:44;20.35;;;12.18;;
75526;SDS011;64107;49.248;7.006;2022-10-13T14:27:10;15.82;;;9.98;;
75526;SDS011;64107;49.248;7.006;2022-10-13T14:29:36;22.33;;;12.40;;
75526;SDS011;64107;49.248;7.006;2022-10-13T14:32:03;23.60;;;13.43;;
75526;SDS011;64107;49.248;7.006;2022-10-13T14:34:29;20.20;;;11.30;;
75526;SDS011;64107;49.248;7.006;2022-10-13T14:36:57;18.10;;;11.88;;
75526;SDS011;64107;49.248;7.006;2022-10-13T14:39:23;19.02;;;11.65;;
75526;SDS011;64107;49.248;7.006;2022-10-13T14:41:49;16.73;;;8.70;;
75526;SDS011;64107;49.248;7.006;2022-10-13T14:44:15;20.13;;;12.32;;
75526;SDS011;64107;49.248;7.006;2022-10-13T14:46:41;17.58;;;10.38;;
75526;SDS011;64107;49.248;7.006;2022-10-13T14:49:08;17.55;;;10.27;;
75526;SDS011;64107;49.248;7.006;2022-10-13T14:51:35;16.40;;;10.32;;
75526;SDS011;64107;49.248;7.006;2022-10-13T14:54:01;14.18;;;6.90;;
75526;SDS011;64107;49.248;7.006;2022-10-13T14:56:28;18.33;;;10.73;;
75526;SDS011;64107;49.248;7.006;2022-10-13T14:58:56;18.50;;;10.60;;
75526;SDS011;64107;49.248;7.006;2022-10-13T15:01:23;17.65;;;8.32;;
75526;SDS011;64107;49.248;7.006;2022-10-13T15:03:49;14.93;;;9.07;;
75526;SDS011;64107;49.248;7.006;2022-10-13T15:06:17;18.73;;;11.13;;
75526;SDS011;64107;49.248;7.006;2022-10-13T15:08:45;19.73;;;11.73;;
75526;SDS011;64107;49.248;7.006;2022-10-13T15:11:11;19.67;;;11.35;;
75526;SDS011;64107;49.248;7.006;2022-10-13T15:13:38;21.80;;;13.43;;
75526;SDS011;64107;49.248;7.006;2022-10-13T15:16:04;19.33;;;11.90;;
75526;SDS011;64107;49.248;7.006;2022-10-13T15:18:31;16.83;;;9.63;;
75526;SDS011;64107;49.248;7.006;2022-10-13T15:20:57;17.30;;;11.23;;
75526;SDS011;64107;49.248;7.006;2022-10-13T15:23:24;13.85;;;9.25;;
75526;SDS011;64107;49.248;7.006;2022-10-13T15:28:24;19.42;;;8.85;;
75526;SDS011;64107;49.248;7.006;2022-10-13T15:30:54;16.40;;;9.57;;
75526;SDS011;64107;49.248;7.006;2022-10-13T15:33:20;18.13;;;10.43;;
75526;SDS011;64107;49.248;7.006;2022-10-13T15:35:48;14.05;;;7.75;;
75526;SDS011;64107;49.248;7.006;2022-10-13T15:38:15;16.52;;;10.23;;
75526;SDS011;64107;49.248;7.006;2022-10-13T15:40:41;18.27;;;11.07;;
75526;SDS011;64107;49.248;7.006;2022-10-13T15:43:07;19.70;;;10.75;;
75526;SDS011;64107;49.248;7.006;2022-10-13T15:45:34;17.23;;;10.02;;
75526;SDS011;64107;49.248;7.006;2022-10-13T15:48:00;18.50;;;10.95;;
75526;SDS011;64107;49.248;7.006;2022-10-13T15:50:27;16.35;;;10.45;;
75526;SDS011;64107;49.248;7.006;2022-10-13T15:52:53;15.55;;;9.93;;
75526;SDS011;64107;49.248;7.006;2022-10-13T15:55:19;18.65;;;11.23;;
75526;SDS011;64107;49.248;7.006;2022-10-13T15:57:45;20.48;;;11.63;;
75526;SDS011;64107;49.248;7.006;2022-10-13T16:00:12;18.58;;;11.70;;
75526;SDS011;64107;49.248;7.006;2022-10-13T16:02:39;18.73;;;11.73;;
75526;SDS011;64107;49.248;7.006;2022-10-13T16:05:07;23.63;;;12.48;;
75526;SDS011;64107;49.248;7.006;2022-10-13T16:07:34;24.55;;;13.65;;
75526;SDS011;64107;49.248;7.006;2022-10-13T16:10:00;24.63;;;13.27;;
75526;SDS011;64107;49.248;7.006;2022-10-13T16:12:27;24.67;;;14.30;;
75526;SDS011;64107;49.248;7.006;2022-10-13T16:14:53;25.25;;;12.98;;
75526;SDS011;64107;49.248;7.006;2022-10-13T16:17:19;24.70;;;13.43;;
75526;SDS011;64107;49.248;7.006;2022-10-13T16:19:45;21.90;;;12.95;;
75526;SDS011;64107;49.248;7.006;2022-10-13T16:22:11;24.10;;;13.15;;
75526;SDS011;64107;49.248;7.006;2022-10-13T16:24:38;23.35;;;13.65;;
75526;SDS011;64107;49.248;7.006;2022-10-13T16:27:05;23.02;;;12.20;;
75526;SDS011;64107;49.248;7.006;2022-10-13T16:29:31;27.30;;;14.05;;
75526;SDS011;64107;49.248;7.006;2022-10-13T16:31:57;29.30;;;14.10;;
75526;SDS011;64107;49.248;7.006;2022-10-13T16:34:26;27.73;;;14.07;;
75526;SDS011;64107;49.248;7.006;2022-10-13T16:36:53;29.38;;;17.48;;
75526;SDS011;64107;49.248;7.006;2022-10-13T16:39:19;33.65;;;18.00;;
75526;SDS011;64107;49.248;7.006;2022-10-13T16:41:47;25.83;;;15.20;;
75526;SDS011;64107;49.248;7.006;2022-10-13T16:44:13;29.00;;;15.98;;